Time;durP1;ratioP1;P1;durP2;ratioP2;P2;SDS_P1;SDS_P2;PMS_P1;PMS_P2;Temp;Humidity;BMP_temperature;BMP_pressure;BME280_temperature;BME280_humidity;BME280_pressure;Samples;Min_cycle;Max_cycle;Signal;HPM_P1;HPM_P2
2022/12/30 00:01:23;;;;;;;9.45;2.90;;;18.70;59.90;;;;;;4561873;31;20076;-66
2022/12/30 00:03:49;;;;;;;8.43;2.88;;;18.70;59.90;;;;;;4541274;31;20721;-67
2022/12/30 00:06:18;;;;;;;10.00;3.15;;;18.60;59.80;;;;;;4533874;31;20147;-68
2022/12/30 00:08:49;;;;;;;11.60;3.25;;;18.60;59.80;;;;;;4560138;31;20759;-69
2022/12/30 00:11:27;;;;;;;11.13;3.67;;;18.60;59.90;;;;;;4561819;31;20138;-68
2022/12/30 00:33:52;;;;;;;8.23;2.83;;;18.50;59.90;;;;;;4560229;31;20246;-68
2022/12/30 00:36:23;;;;;;;10.40;2.88;;;18.50;59.90;;;;;;4546451;31;20135;-68
2022/12/30 00:38:49;;;;;;;10.27;3.00;;;18.50;59.90;;;;;;4557800;31;20203;-67
2022/12/30 00:43:59;;;;;;;7.22;2.53;;;18.40;59.70;;;;;;4537438;31;20083;-68
2022/12/30 00:46:25;;;;;;;6.97;2.58;;;18.40;59.70;;;;;;4537343;31;20134;-67
2022/12/30 00:57:05;;;;;;;7.38;2.00;;;18.40;59.80;;;;;;4565846;31;20091;-68
2022/12/30 00:59:32;;;;;;;6.47;2.03;;;18.40;60.00;;;;;;4549348;31;20134;-77
2022/12/30 01:02:01;;;;;;;11.02;2.67;;;18.40;60.00;;;;;;4543299;31;20231;-75
2022/12/30 01:04:27;;;;;;;7.40;2.63;;;18.40;60.00;;;;;;4523757;31;20572;-79
2022/12/30 01:06:53;;;;;;;6.30;2.22;;;18.40;60.00;;;;;;4510501;31;20162;-70
2022/12/30 01:09:26;;;;;;;5.80;2.50;;;18.40;60.00;;;;;;4547328;31;20086;-68
2022/12/30 01:12:07;;;;;;;6.72;2.25;;;18.40;60.00;;;;;;4523491;31;20167;-69
2022/12/30 01:14:46;;;;;;;6.25;2.17;;;18.40;59.90;;;;;;4535665;31;20129;-68
2022/12/30 01:17:16;;;;;;;10.60;2.47;;;18.40;59.90;;;;;;4562081;31;20159;-69
2022/12/30 01:19:42;;;;;;;7.90;2.33;;;18.40;60.00;;;;;;4546927;31;20169;-68
2022/12/30 01:22:08;;;;;;;7.75;2.47;;;18.40;60.00;;;;;;4562949;31;20265;-68
2022/12/30 01:24:35;;;;;;;5.88;1.92;;;18.30;60.00;;;;;;4564707;31;20168;-69
2022/12/30 01:27:01;;;;;;;9.93;2.63;;;18.30;60.00;;;;;;4565085;31;20086;-68
2022/12/30 01:29:36;;;;;;;6.18;2.33;;;18.30;60.00;;;;;;4563746;31;20592;-68
2022/12/30 01:32:09;;;;;;;6.13;2.40;;;18.30;60.00;;;;;;4565094;31;20227;-69
2022/12/30 01:34:38;;;;;;;7.68;2.00;;;18.30;60.00;;;;;;4549549;31;20154;-68
2022/12/30 01:37:04;;;;;;;7.10;1.95;;;18.20;60.00;;;;;;4543359;31;20216;-69
2022/12/30 01:39:43;;;;;;;7.28;2.08;;;18.20;60.00;;;;;;4562373;31;20179;-69
2022/12/30 01:42:27;;;;;;;5.72;1.55;;;18.20;60.00;;;;;;4563710;31;20136;-69
2022/12/30 01:45:20;;;;;;;7.70;2.08;;;18.20;59.90;;;;;;4550438;31;20131;-69
2022/12/30 01:48:21;;;;;;;7.78;1.95;;;18.20;59.90;;;;;;4563599;31;20131;-69
2022/12/30 01:50:50;;;;;;;7.32;1.98;;;18.20;60.00;;;;;;4558120;31;20174;-68
2022/12/30 01:53:21;;;;;;;5.72;2.08;;;18.20;60.00;;;;;;4564952;31;20153;-68
2022/12/30 01:56:07;;;;;;;6.05;1.90;;;18.20;60.00;;;;;;4563206;31;20143;-68
2022/12/30 01:58:51;;;;;;;7.25;1.80;;;18.10;59.90;;;;;;4537700;31;20135;-69
2022/12/30 02:01:18;;;;;;;4.22;1.55;;;18.20;60.00;;;;;;4550054;31;20079;-69
2022/12/30 02:03:48;;;;;;;6.65;2.13;;;18.10;59.90;;;;;;4546070;31;20268;-68
2022/12/30 02:06:21;;;;;;;8.18;2.10;;;18.10;60.00;;;;;;4564447;31;20138;-68
2022/12/30 02:08:47;;;;;;;7.03;1.98;;;18.10;59.90;;;;;;4530163;31;20123;-68
2022/12/30 02:11:13;;;;;;;6.57;2.05;;;18.10;59.90;;;;;;4531437;31;20120;-69
2022/12/30 02:13:39;;;;;;;5.68;1.85;;;18.10;59.90;;;;;;4548370;31;20102;-68
2022/12/30 02:16:24;;;;;;;6.07;1.70;;;18.10;59.90;;;;;;4549413;31;20154;-68
2022/12/30 02:19:06;;;;;;;5.53;1.83;;;18.10;59.90;;;;;;4548194;31;20094;-68
2022/12/30 02:22:07;;;;;;;7.15;2.30;;;18.10;59.80;;;;;;4540522;31;20146;-68
2022/12/30 02:24:54;;;;;;;6.00;1.73;;;18.00;59.80;;;;;;4507864;31;20145;-70
2022/12/30 02:27:35;;;;;;;7.13;2.03;;;18.00;59.80;;;;;;4558213;31;20076;-68
2022/12/30 02:30:21;;;;;;;7.80;2.10;;;18.00;59.80;;;;;;4562695;31;20133;-68
2022/12/30 02:33:35;;;;;;;6.30;1.92;;;18.00;59.90;;;;;;4564505;31;20104;-68
2022/12/30 02:36:32;;;;;;;5.28;1.98;;;18.00;59.90;;;;;;4525375;31;20144;-69
2022/12/30 02:39:33;;;;;;;6.40;2.00;;;18.00;59.90;;;;;;4562764;31;20153;-68
2022/12/30 02:45:03;;;;;;;6.03;2.20;;;17.90;59.90;;;;;;4548117;31;20426;-68
2022/12/30 02:47:51;;;;;;;6.43;1.90;;;17.90;59.90;;;;;;4543555;31;20131;-68
2022/12/30 02:53:18;;;;;;;5.57;1.70;;;17.90;60.00;;;;;;4564120;31;20107;-68
2022/12/30 02:55:44;;;;;;;6.00;1.70;;;17.90;60.10;;;;;;4562300;31;20131;-68
2022/12/30 02:58:12;;;;;;;5.70;1.80;;;17.90;60.10;;;;;;4563900;31;20472;-68
2022/12/30 03:03:58;;;;;;;6.15;1.48;;;17.90;60.00;;;;;;4552365;31;20859;-68
2022/12/30 03:06:42;;;;;;;5.43;1.55;;;17.90;60.10;;;;;;4563627;31;20321;-68
2022/12/30 03:09:38;;;;;;;3.97;1.48;;;17.80;60.00;;;;;;4562512;31;20174;-70
2022/12/30 03:12:25;;;;;;;5.18;1.80;;;17.90;61.00;;;;;;4547822;31;20297;-68
2022/12/30 03:14:56;;;;;;;5.68;1.88;;;17.80;60.10;;;;;;4563384;31;20145;-69
2022/12/30 03:17:34;;;;;;;5.28;1.80;;;17.80;61.00;;;;;;4534287;31;20138;-69
2022/12/30 03:20:09;;;;;;;4.80;1.52;;;17.80;60.00;;;;;;4539412;31;20265;-68
2022/12/30 03:28:12;;;;;;;5.50;1.70;;;17.80;60.20;;;;;;4551226;31;20158;-69
2022/12/30 03:30:45;;;;;;;3.80;1.33;;;17.80;60.20;;;;;;4543192;31;20132;-68
2022/12/30 03:33:12;;;;;;;6.70;1.92;;;17.80;60.20;;;;;;4562480;31;20300;-68
2022/12/30 03:35:48;;;;;;;6.82;1.58;;;17.80;60.20;;;;;;4549091;31;20079;-68
2022/12/30 03:38:18;;;;;;;4.97;1.52;;;17.80;60.20;;;;;;4561725;31;20143;-68
2022/12/30 03:40:47;;;;;;;5.57;1.90;;;17.80;60.20;;;;;;4563285;31;20103;-69
2022/12/30 03:43:14;;;;;;;4.55;1.65;;;17.80;61.10;;;;;;4533808;31;20138;-68
2022/12/30 03:45:40;;;;;;;4.30;1.77;;;17.70;60.10;;;;;;4527448;31;20132;-69
2022/12/30 03:48:06;;;;;;;6.32;1.58;;;17.70;60.20;;;;;;4520526;31;20080;-68
2022/12/30 03:50:32;;;;;;;4.57;1.92;;;17.70;60.20;;;;;;4534339;31;20667;-68
2022/12/30 03:52:58;;;;;;;3.88;1.38;;;17.70;60.20;;;;;;4537380;31;20079;-68
2022/12/30 03:55:24;;;;;;;5.38;1.63;;;17.70;60.20;;;;;;4547082;31;20146;-68
2022/12/30 03:57:50;;;;;;;4.15;1.42;;;17.70;60.20;;;;;;4548664;31;20127;-68
2022/12/30 04:00:16;;;;;;;5.38;1.77;;;17.70;61.10;;;;;;4533526;31;20131;-68
2022/12/30 04:02:47;;;;;;;5.97;1.83;;;17.70;60.30;;;;;;4523859;31;20143;-68
2022/12/30 04:05:14;;;;;;;4.53;1.60;;;17.70;60.30;;;;;;4550837;31;20111;-68
2022/12/30 04:07:40;;;;;;;5.20;1.52;;;17.60;60.20;;;;;;4562134;31;20181;-68
2022/12/30 04:10:06;;;;;;;6.38;1.58;;;17.60;60.20;;;;;;4548599;31;20072;-68
2022/12/30 04:12:32;;;;;;;3.67;1.33;;;17.60;60.20;;;;;;4527800;31;20189;-68
2022/12/30 04:14:58;;;;;;;4.90;1.63;;;17.70;60.30;;;;;;4542773;31;20261;-68
2022/12/30 04:17:24;;;;;;;4.43;1.45;;;17.70;60.30;;;;;;4546754;31;20137;-68
2022/12/30 04:19:50;;;;;;;3.67;1.50;;;17.60;60.20;;;;;;4563190;31;20579;-68
2022/12/30 04:22:16;;;;;;;5.55;1.60;;;17.60;60.30;;;;;;4522955;31;20659;-68
2022/12/30 04:24:42;;;;;;;4.88;1.85;;;17.60;60.20;;;;;;4534385;31;20610;-69
2022/12/30 04:27:08;;;;;;;5.65;1.63;;;17.60;60.30;;;;;;4537219;31;20127;-68
2022/12/30 04:29:34;;;;;;;4.40;1.48;;;17.60;60.30;;;;;;4536664;31;20223;-68
2022/12/30 04:32:00;;;;;;;4.43;1.70;;;17.60;60.40;;;;;;4550817;31;20115;-68
2022/12/30 04:34:26;;;;;;;4.00;1.48;;;17.60;60.30;;;;;;4564225;31;20198;-69
2022/12/30 04:36:53;;;;;;;5.00;1.45;;;17.60;60.30;;;;;;4537874;31;20234;-68
2022/12/30 04:39:19;;;;;;;7.68;1.88;;;17.50;60.30;;;;;;4535039;31;20219;-68
2022/12/30 04:41:45;;;;;;;7.18;1.75;;;17.60;60.40;;;;;;4555838;31;20127;-68
2022/12/30 04:44:11;;;;;;;4.18;1.40;;;17.50;60.40;;;;;;4565582;31;20088;-68
2022/12/30 04:46:37;;;;;;;5.28;1.38;;;17.50;60.30;;;;;;4563812;31;20193;-68
2022/12/30 04:49:03;;;;;;;5.35;1.65;;;17.50;60.30;;;;;;4565982;31;20157;-68
2022/12/30 04:51:29;;;;;;;3.70;1.33;;;17.50;61.20;;;;;;4535710;31;20186;-68
2022/12/30 04:53:54;;;;;;;6.22;1.77;;;17.50;60.30;;;;;;4528648;31;20200;-68
2022/12/30 04:56:20;;;;;;;4.70;1.52;;;17.50;60.30;;;;;;4561041;31;20273;-68
2022/12/30 04:58:46;;;;;;;4.07;1.40;;;17.50;60.40;;;;;;4550924;31;20115;-68
2022/12/30 05:01:12;;;;;;;4.80;1.60;;;17.50;60.40;;;;;;4550795;31;20086;-68
2022/12/30 05:03:38;;;;;;;4.50;1.58;;;17.50;60.30;;;;;;4549576;31;20184;-68
2022/12/30 05:06:14;;;;;;;3.42;1.08;;;17.50;60.40;;;;;;4551954;31;20139;-68
2022/12/30 05:08:40;;;;;;;5.80;2.05;;;17.50;60.40;;;;;;4535969;31;20112;-68
2022/12/30 05:11:06;;;;;;;4.10;1.42;;;17.50;60.40;;;;;;4541183;31;20139;-67
2022/12/30 05:13:33;;;;;;;3.38;1.02;;;17.40;60.30;;;;;;4563001;31;20079;-68
2022/12/30 05:15:58;;;;;;;4.03;1.60;;;17.40;60.30;;;;;;4550245;31;20122;-68
2022/12/30 05:18:24;;;;;;;3.08;1.38;;;17.40;60.40;;;;;;4564830;31;20200;-68
2022/12/30 05:20:50;;;;;;;4.10;1.42;;;17.40;60.40;;;;;;4549065;31;20242;-68
2022/12/30 05:26:13;;;;;;;7.03;1.52;;;17.40;60.30;;;;;;4551547;31;20553;-68
2022/12/30 05:28:40;;;;;;;3.42;1.35;;;17.40;60.40;;;;;;4565013;31;20123;-68
2022/12/30 05:31:06;;;;;;;4.95;1.38;;;17.40;60.40;;;;;;4565047;31;20130;-68
2022/12/30 05:33:31;;;;;;;4.05;1.50;;;17.40;60.40;;;;;;4549306;31;20265;-68
2022/12/30 05:35:58;;;;;;;3.78;1.30;;;17.40;60.20;;;;;;4565376;31;20115;-68
2022/12/30 05:38:24;;;;;;;4.10;1.48;;;17.40;60.20;;;;;;4548579;31;20123;-68
2022/12/30 05:40:50;;;;;;;4.72;1.40;;;17.40;60.20;;;;;;4539065;31;20124;-69
2022/12/30 05:43:17;;;;;;;8.07;1.77;;;17.50;60.20;;;;;;4563813;31;20574;-68
2022/12/30 05:45:43;;;;;;;3.90;1.15;;;17.50;60.20;;;;;;4550340;31;20189;-68
2022/12/30 05:48:08;;;;;;;4.35;1.30;;;17.50;60.00;;;;;;4564591;31;20084;-68
2022/12/30 05:50:34;;;;;;;5.00;1.60;;;17.50;59.90;;;;;;4563695;31;20633;-69
2022/12/30 05:53:00;;;;;;;4.82;1.40;;;17.50;59.80;;;;;;4565042;31;20080;-68
2022/12/30 05:55:26;;;;;;;5.35;1.40;;;17.50;59.70;;;;;;4535567;31;20126;-68
2022/12/30 05:57:52;;;;;;;5.07;1.67;;;17.60;59.70;;;;;;4538858;31;20124;-68
2022/12/30 06:00:18;;;;;;;4.55;1.38;;;17.50;59.60;;;;;;4535386;31;20142;-68
2022/12/30 06:02:48;;;;;;;3.63;1.27;;;17.60;59.50;;;;;;4539140;31;20192;-68
2022/12/30 06:05:13;;;;;;;3.42;1.25;;;17.60;59.50;;;;;;4524077;31;20083;-67
2022/12/30 06:07:42;;;;;;;6.30;1.85;;;17.60;59.40;;;;;;4536023;31;20525;-68
2022/12/30 06:10:08;;;;;;;3.17;1.20;;;17.60;59.40;;;;;;4553115;31;20561;-68
2022/12/30 06:12:42;;;;;;;3.85;1.35;;;17.60;59.30;;;;;;4562813;31;20111;-68
2022/12/30 06:15:08;;;;;;;3.85;1.33;;;17.60;59.20;;;;;;4533664;31;20504;-68
2022/12/30 06:17:34;;;;;;;5.25;1.58;;;17.70;59.30;;;;;;4554092;31;20143;-68
2022/12/30 06:20:00;;;;;;;3.95;1.40;;;17.70;59.30;;;;;;4511626;31;20200;-68
2022/12/30 06:22:29;;;;;;;4.75;1.60;;;17.60;59.20;;;;;;4549910;31;20094;-68
2022/12/30 06:24:55;;;;;;;3.92;1.48;;;17.70;59.20;;;;;;4535105;31;20484;-68
2022/12/30 06:27:22;;;;;;;5.38;1.50;;;17.70;59.30;;;;;;4536210;31;20260;-68
2022/12/30 06:29:48;;;;;;;3.97;1.17;;;17.70;59.30;;;;;;4534221;31;20198;-68
2022/12/30 06:32:14;;;;;;;3.85;1.05;;;17.70;59.30;;;;;;4549510;31;20139;-68
2022/12/30 06:34:40;;;;;;;3.78;1.27;;;17.70;59.30;;;;;;4548075;31;20138;-68
2022/12/30 06:37:06;;;;;;;3.53;1.10;;;17.70;59.30;;;;;;4549510;31;20174;-68
2022/12/30 06:39:32;;;;;;;3.03;1.23;;;17.70;59.40;;;;;;4563676;31;20080;-68
2022/12/30 06:42:04;;;;;;;3.17;1.42;;;17.70;59.30;;;;;;4548850;31;20211;-69
2022/12/30 06:44:30;;;;;;;3.70;1.17;;;17.70;59.30;;;;;;4549475;31;20146;-68
2022/12/30 06:46:56;;;;;;;4.60;1.38;;;17.70;59.30;;;;;;4548039;31;20149;-68
2022/12/30 06:49:21;;;;;;;3.42;0.98;;;17.70;59.30;;;;;;4549418;31;20557;-68
2022/12/30 06:51:47;;;;;;;4.55;1.23;;;17.70;59.30;;;;;;4547627;31;20134;-68
2022/12/30 06:54:13;;;;;;;2.90;1.33;;;17.70;59.30;;;;;;4536088;31;20120;-68
2022/12/30 06:56:39;;;;;;;2.72;1.08;;;17.70;59.30;;;;;;4548558;31;20071;-68
2022/12/30 06:59:05;;;;;;;3.72;1.30;;;17.70;59.40;;;;;;4534833;31;20126;-68
2022/12/30 07:01:30;;;;;;;3.75;1.50;;;17.70;59.40;;;;;;4533596;31;20078;-68
2022/12/30 07:03:56;;;;;;;4.55;1.15;;;17.70;59.30;;;;;;4538737;31;20115;-68
2022/12/30 07:06:23;;;;;;;3.33;1.50;;;17.70;59.30;;;;;;4563547;31;20127;-68
2022/12/30 07:08:49;;;;;;;3.17;1.40;;;17.70;60.20;;;;;;4534340;31;20150;-68
2022/12/30 07:11:14;;;;;;;3.83;1.15;;;17.70;59.30;;;;;;4563745;31;20120;-68
2022/12/30 07:13:40;;;;;;;3.35;1.25;;;17.70;59.30;;;;;;4548485;31;20076;-68
2022/12/30 07:16:06;;;;;;;2.25;1.00;;;17.70;59.30;;;;;;4534903;31;20127;-68
2022/12/30 07:18:35;;;;;;;4.03;1.20;;;17.70;59.30;;;;;;4538043;31;20111;-68
2022/12/30 07:21:01;;;;;;;3.97;1.40;;;17.70;59.30;;;;;;4547463;31;20755;-67
2022/12/30 07:23:27;;;;;;;3.35;1.20;;;17.70;59.30;;;;;;4548602;31;20150;-69
2022/12/30 07:25:54;;;;;;;3.95;1.20;;;17.70;59.30;;;;;;4547262;31;20172;-67
2022/12/30 07:28:20;;;;;;;3.58;1.20;;;17.70;59.20;;;;;;4535486;31;20139;-68
2022/12/30 07:30:45;;;;;;;4.40;1.30;;;17.70;59.10;;;;;;4536296;31;20087;-67
2022/12/30 07:33:23;;;;;;;2.95;1.20;;;17.70;59.10;;;;;;4562344;31;20158;-68
2022/12/30 07:35:49;;;;;;;3.85;1.17;;;17.70;59.10;;;;;;4549001;31;20520;-68
2022/12/30 07:38:15;;;;;;;2.70;1.08;;;17.70;59.00;;;;;;4514344;31;20261;-68
2022/12/30 07:40:41;;;;;;;3.25;1.45;;;17.70;59.00;;;;;;4558166;31;20201;-68
2022/12/30 07:43:06;;;;;;;3.30;1.23;;;17.70;58.90;;;;;;4546920;31;20139;-68
2022/12/30 07:45:36;;;;;;;3.72;1.20;;;17.60;59.80;;;;;;4535893;31;20151;-68
2022/12/30 07:48:03;;;;;;;3.90;1.30;;;17.60;58.80;;;;;;4551429;31;20148;-68
2022/12/30 07:50:29;;;;;;;2.58;1.05;;;17.60;58.90;;;;;;4562188;31;20119;-68
2022/12/30 07:52:55;;;;;;;3.00;1.20;;;17.70;58.90;;;;;;4563263;31;20134;-68
2022/12/30 07:55:21;;;;;;;3.85;1.20;;;17.60;58.80;;;;;;4561481;31;20155;-67
2022/12/30 07:57:47;;;;;;;5.68;1.40;;;17.60;58.90;;;;;;4563369;31;20203;-68
2022/12/30 08:00:13;;;;;;;2.85;1.10;;;17.60;58.80;;;;;;4546198;31;20604;-68
2022/12/30 08:02:39;;;;;;;3.05;1.05;;;17.60;58.80;;;;;;4548102;31;20128;-69
2022/12/30 08:05:08;;;;;;;3.22;1.33;;;17.60;58.90;;;;;;4561907;31;20213;-70
2022/12/30 08:07:35;;;;;;;2.58;1.20;;;17.60;58.80;;;;;;4546893;31;20207;-69
2022/12/30 08:10:03;;;;;;;5.50;1.70;;;17.60;59.00;;;;;;4562683;31;20132;-69
2022/12/30 08:12:29;;;;;;;2.47;1.02;;;17.60;59.20;;;;;;4560597;31;20135;-69
2022/12/30 08:14:55;;;;;;;2.97;0.90;;;17.50;59.60;;;;;;4533296;31;20146;-69
2022/12/30 08:17:21;;;;;;;3.45;1.02;;;17.60;59.90;;;;;;4560826;31;20123;-69
2022/12/30 08:19:47;;;;;;;2.97;1.20;;;17.60;60.00;;;;;;4562880;31;20669;-67
2022/12/30 08:22:16;;;;;;;4.60;1.20;;;17.60;59.90;;;;;;4538717;31;20421;-68
2022/12/30 08:24:44;;;;;;;2.55;1.00;;;17.70;59.70;;;;;;4561476;31;20139;-68
2022/12/30 08:27:11;;;;;;;3.45;1.15;;;17.80;59.40;;;;;;4548372;31;20115;-67
2022/12/30 08:29:37;;;;;;;3.28;1.10;;;17.90;59.10;;;;;;4524584;31;20346;-67
2022/12/30 08:32:13;;;;;;;2.17;1.10;;;18.10;58.70;;;;;;4560367;31;20594;-68
2022/12/30 08:34:39;;;;;;;3.65;1.17;;;18.20;58.30;;;;;;4546491;31;20123;-68
2022/12/30 08:37:08;;;;;;;4.47;1.00;;;18.40;58.00;;;;;;4522592;31;20202;-68
2022/12/30 08:39:34;;;;;;;4.07;1.05;;;18.50;57.60;;;;;;4536576;31;20087;-68
2022/12/30 08:41:59;;;;;;;6.60;1.15;;;18.70;57.20;;;;;;4546693;31;20184;-68
2022/12/30 08:44:25;;;;;;;3.85;1.15;;;18.80;56.90;;;;;;4562676;31;20088;-68
2022/12/30 08:46:52;;;;;;;3.47;1.15;;;18.90;56.60;;;;;;4560414;31;20205;-68
2022/12/30 08:49:18;;;;;;;3.05;1.17;;;19.10;56.30;;;;;;4547482;31;20179;-68
2022/12/30 08:51:44;;;;;;;2.92;1.02;;;19.20;55.90;;;;;;4560238;31;20257;-68
2022/12/30 08:54:16;;;;;;;3.05;1.00;;;19.30;55.60;;;;;;4533553;31;20191;-69
2022/12/30 08:56:42;;;;;;;3.58;0.93;;;19.40;55.30;;;;;;4561703;31;20428;-69
2022/12/30 08:59:15;;;;;;;3.70;1.13;;;19.50;55.20;;;;;;4546879;31;20131;-69
2022/12/30 09:01:41;;;;;;;6.90;1.40;;;19.50;55.10;;;;;;4532932;31;20293;-69
2022/12/30 09:04:08;;;;;;;2.40;1.10;;;19.50;55.10;;;;;;4546396;31;20119;-68
2022/12/30 09:06:54;;;;;;;4.20;1.27;;;19.50;55.10;;;;;;4550151;31;20128;-69
2022/12/30 09:09:20;;;;;;;3.92;1.27;;;19.50;55.00;;;;;;4561797;31;20090;-69
2022/12/30 09:11:47;;;;;;;3.33;1.05;;;19.60;54.90;;;;;;4530662;31;20116;-69
2022/12/30 09:14:14;;;;;;;2.60;1.00;;;19.60;54.80;;;;;;4548036;31;20068;-69
2022/12/30 09:16:40;;;;;;;3.92;1.55;;;19.60;54.90;;;;;;4563783;31;20139;-69
2022/12/30 09:19:06;;;;;;;3.78;1.20;;;19.60;54.80;;;;;;4565502;31;20118;-69
2022/12/30 09:21:32;;;;;;;3.75;0.95;;;19.60;54.80;;;;;;4535949;31;20111;-68
2022/12/30 09:23:58;;;;;;;3.15;1.20;;;19.60;54.80;;;;;;4564392;31;20219;-70
2022/12/30 09:26:26;;;;;;;2.90;1.10;;;19.60;54.80;;;;;;4549459;31;20083;-70
2022/12/30 09:28:58;;;;;;;2.22;1.13;;;19.60;54.80;;;;;;4563836;31;20615;-70
2022/12/30 09:31:25;;;;;;;3.33;1.10;;;19.60;54.80;;;;;;4564845;31;20527;-69
2022/12/30 09:33:51;;;;;;;1.90;0.82;;;19.60;54.80;;;;;;4563115;31;20211;-70
2022/12/30 09:36:18;;;;;;;2.97;1.20;;;19.70;54.90;;;;;;4550255;31;20291;-69
2022/12/30 09:38:45;;;;;;;4.45;1.15;;;19.70;54.90;;;;;;4563016;31;20130;-70
2022/12/30 09:44:47;;;;;;;4.05;1.10;;;19.70;54.90;;;;;;4564621;31;20147;-70
2022/12/30 09:47:21;;;;;;;2.85;1.00;;;19.70;54.90;;;;;;4539496;31;20131;-69
2022/12/30 09:50:00;;;;;;;2.67;1.10;;;19.70;55.00;;;;;;4549216;31;20134;-69
2022/12/30 09:52:55;;;;;;;4.97;1.13;;;19.60;54.90;;;;;;4550091;31;20082;-69
2022/12/30 09:55:29;;;;;;;4.00;1.38;;;19.70;55.00;;;;;;4563343;31;20141;-69
2022/12/30 09:57:59;;;;;;;4.32;1.30;;;19.70;55.00;;;;;;4564859;31;20142;-69
2022/12/30 10:00:27;;;;;;;8.15;1.48;;;19.70;55.00;;;;;;4563133;31;20132;-69
2022/12/30 10:03:22;;;;;;;3.20;1.10;;;19.70;55.10;;;;;;4536175;31;20154;-68
2022/12/30 10:06:02;;;;;;;3.35;1.20;;;19.70;55.40;;;;;;4545847;31;20293;-69
2022/12/30 10:08:44;;;;;;;5.10;1.13;;;19.70;55.70;;;;;;4544536;31;20266;-69
2022/12/30 10:11:52;;;;;;;3.90;1.23;;;19.70;55.70;;;;;;4563874;31;20154;-70
2022/12/30 10:14:48;;;;;;;4.22;0.88;;;19.70;55.80;;;;;;4562230;31;20224;-68
2022/12/30 10:17:33;;;;;;;3.53;1.38;;;19.70;56.00;;;;;;4562932;31;20111;-68
2022/12/30 10:20:20;;;;;;;2.78;1.10;;;19.70;56.20;;;;;;4544886;31;20143;-69
2022/12/30 10:22:51;;;;;;;4.45;1.27;;;19.70;56.30;;;;;;4562982;31;20110;-69
2022/12/30 10:25:26;;;;;;;6.28;0.90;;;19.70;56.30;;;;;;4561879;31;20312;-69
2022/12/30 10:27:55;;;;;;;4.32;0.95;;;19.70;56.40;;;;;;4546302;31;20601;-69
2022/12/30 10:30:26;;;;;;;3.08;1.17;;;19.70;56.50;;;;;;4562543;31;20143;-69
2022/12/30 10:33:00;;;;;;;4.13;1.10;;;19.70;56.60;;;;;;4562682;31;20145;-73
2022/12/30 10:35:30;;;;;;;3.42;1.20;;;19.60;56.60;;;;;;4548250;31;20143;-68
2022/12/30 10:38:08;;;;;;;3.58;1.30;;;19.70;56.70;;;;;;4561434;31;20162;-70
2022/12/30 10:40:57;;;;;;;2.25;0.93;;;19.60;56.80;;;;;;4562671;31;20135;-70
2022/12/30 10:43:53;;;;;;;5.90;1.05;;;19.60;56.90;;;;;;4546540;31;20097;-70
2022/12/30 10:46:59;;;;;;;3.70;1.20;;;19.60;56.90;;;;;;4546939;31;20782;-70
2022/12/30 10:49:40;;;;;;;3.92;1.20;;;19.60;57.00;;;;;;4561892;31;20147;-70
2022/12/30 10:52:10;;;;;;;6.90;1.00;;;19.60;57.00;;;;;;4563392;31;20130;-69
2022/12/30 10:54:36;;;;;;;5.53;1.38;;;19.60;57.00;;;;;;4541232;31;20122;-70
2022/12/30 10:57:03;;;;;;;2.70;0.90;;;19.60;57.10;;;;;;4564056;31;20060;-70
2022/12/30 10:59:31;;;;;;;4.68;1.17;;;19.60;57.20;;;;;;4547600;31;20503;-67
2022/12/30 11:02:15;;;;;;;2.72;1.17;;;19.50;57.30;;;;;;4563943;31;20123;-68
2022/12/30 11:04:41;;;;;;;;;;;19.50;57.50;;;;;;4544944;31;20137;-69
2022/12/30 11:07:13;;;;;;;3.95;1.20;;;19.40;57.60;;;;;;4543184;31;20082;-70
2022/12/30 11:09:39;;;;;;;3.85;1.10;;;19.30;57.80;;;;;;4545910;31;20092;-69
2022/12/30 11:15:09;;;;;;;4.35;1.27;;;19.20;58.10;;;;;;4544830;31;20204;-68
2022/12/30 11:17:59;;;;;;;4.35;1.20;;;19.20;59.40;;;;;;4546136;31;20274;-70
2022/12/30 11:20:36;;;;;;;6.28;1.10;;;19.10;58.80;;;;;;4545113;31;20864;-70
2022/12/30 11:23:31;;;;;;;8.50;1.30;;;19.10;59.00;;;;;;4539258;31;20146;-71
2022/12/30 11:26:00;;;;;;;2.97;1.00;;;19.00;59.10;;;;;;4540423;31;20557;-70
2022/12/30 11:28:32;;;;;;;3.22;1.42;;;19.00;59.30;;;;;;4538694;31;20127;-70
2022/12/30 11:31:10;;;;;;;5.18;1.25;;;19.00;59.20;;;;;;4533200;31;20088;-70
2022/12/30 11:33:39;;;;;;;6.03;1.50;;;19.10;59.20;;;;;;4544466;31;20154;-70
2022/12/30 11:36:16;;;;;;;4.85;1.20;;;19.10;59.00;;;;;;4534356;31;20468;-71
2022/12/30 11:38:48;;;;;;;3.97;1.30;;;19.20;59.00;;;;;;4545596;31;20588;-71
2022/12/30 11:41:16;;;;;;;5.38;1.20;;;19.30;58.70;;;;;;4546863;31;20294;-70
2022/12/30 11:43:43;;;;;;;14.20;1.77;;;19.40;58.60;;;;;;4545729;31;20088;-70
2022/12/30 11:46:12;;;;;;;9.40;1.10;;;19.50;58.60;;;;;;4542737;31;20281;-69
2022/12/30 11:48:44;;;;;;;9.32;1.02;;;19.60;58.50;;;;;;4545148;31;20261;-70
2022/12/30 11:51:33;;;;;;;7.75;1.60;;;19.70;58.60;;;;;;4543493;31;20196;-69
2022/12/30 11:54:02;;;;;;;8.48;1.60;;;19.70;58.60;;;;;;4531530;31;20123;-69
2022/12/30 11:56:28;;;;;;;7.70;1.55;;;19.70;58.60;;;;;;4543081;31;20107;-69
2022/12/30 11:58:54;;;;;;;6.78;1.58;;;19.80;58.70;;;;;;4544313;31;20600;-69
2022/12/30 12:01:20;;;;;;;8.65;1.70;;;19.80;58.70;;;;;;4546371;31;20088;-69
2022/12/30 12:03:56;;;;;;;6.93;1.50;;;19.80;58.70;;;;;;4526940;31;20104;-67
2022/12/30 12:06:22;;;;;;;7.55;1.60;;;19.80;58.70;;;;;;4550362;31;20223;-71
2022/12/30 12:09:06;;;;;;;6.47;1.48;;;19.80;58.70;;;;;;4546064;31;20190;-71
2022/12/30 12:11:43;;;;;;;8.00;1.40;;;19.80;58.80;;;;;;4560347;31;20146;-71
2022/12/30 12:14:29;;;;;;;5.75;1.63;;;19.80;58.80;;;;;;4544323;31;20188;-70
2022/12/30 12:17:12;;;;;;;6.22;1.10;;;19.80;58.80;;;;;;4559311;31;20150;-69
2022/12/30 12:19:55;;;;;;;10.45;1.80;;;19.80;58.70;;;;;;4547690;31;20141;-69
2022/12/30 12:22:34;;;;;;;4.97;1.53;;;19.80;58.80;;;;;;4546847;31;20095;-69
2022/12/30 12:25:13;;;;;;;5.03;1.17;;;19.80;58.70;;;;;;4560103;31;20610;-69
2022/12/30 12:27:39;;;;;;;6.55;1.65;;;19.80;58.70;;;;;;4546809;31;20139;-70
2022/12/30 12:30:11;;;;;;;7.22;1.40;;;19.80;58.70;;;;;;4541716;31;20108;-70
2022/12/30 12:32:46;;;;;;;4.97;1.50;;;19.80;58.70;;;;;;4548375;31;20175;-70
2022/12/30 12:35:27;;;;;;;9.60;1.48;;;19.80;58.80;;;;;;4554984;31;20083;-69
2022/12/30 12:38:25;;;;;;;6.13;1.40;;;19.80;58.80;;;;;;4540733;31;20147;-70
2022/12/30 12:41:10;;;;;;;7.28;1.63;;;19.80;58.80;;;;;;4562939;31;20131;-70
2022/12/30 12:44:20;;;;;;;5.07;1.77;;;19.80;58.80;;;;;;4554027;31;20079;-70
2022/12/30 12:46:49;;;;;;;9.50;1.30;;;19.80;58.70;;;;;;4558503;31;20159;-70
2022/12/30 12:49:17;;;;;;;6.40;1.30;;;19.80;58.80;;;;;;4541744;31;20519;-70
2022/12/30 12:51:49;;;;;;;8.52;1.10;;;19.80;58.60;;;;;;4547572;31;20155;-69
2022/12/30 12:54:59;;;;;;;5.68;1.30;;;19.80;58.50;;;;;;4543157;31;20128;-70
2022/12/30 12:58:02;;;;;;;6.30;1.40;;;19.80;58.40;;;;;;4470955;32;20137;-70
2022/12/30 13:00:46;;;;;;;12.43;2.25;;;19.80;58.30;;;;;;4469744;32;20537;-70
2022/12/30 13:03:33;;;;;;;6.68;1.77;;;19.80;58.80;;;;;;4537064;31;20146;-70
2022/12/30 13:06:14;;;;;;;4.75;1.90;;;19.80;59.10;;;;;;4559260;31;20261;-70
2022/12/30 13:08:55;;;;;;;5.80;1.75;;;19.90;59.10;;;;;;4561936;31;20146;-70
2022/12/30 13:11:30;;;;;;;4.93;1.48;;;19.80;59.20;;;;;;4560352;31;20296;-70
2022/12/30 13:13:55;;;;;;;6.75;1.50;;;19.80;59.10;;;;;;4539598;31;20124;-70
2022/12/30 13:16:28;;;;;;;4.60;1.45;;;19.80;59.00;;;;;;4558464;31;20129;-69
2022/12/30 13:18:55;;;;;;;4.53;1.50;;;19.90;58.90;;;;;;4548490;31;20155;-70
2022/12/30 13:21:25;;;;;;;6.30;2.30;;;19.90;58.90;;;;;;4546463;31;20127;-68
2022/12/30 13:23:57;;;;;;;12.32;1.83;;;19.90;59.10;;;;;;4564705;31;20138;-70
2022/12/30 13:26:26;;;;;;;4.20;1.60;;;19.90;59.40;;;;;;4549968;31;20090;-69
2022/12/30 13:29:00;;;;;;;6.35;1.63;;;19.90;59.40;;;;;;4549175;31;20128;-69
2022/12/30 13:31:53;;;;;;;8.10;1.95;;;20.00;59.40;;;;;;4562662;31;20142;-71
2022/12/30 13:34:25;;;;;;;5.50;1.60;;;19.90;59.20;;;;;;4563416;31;20128;-70
2022/12/30 13:37:03;;;;;;;5.40;1.65;;;20.00;59.40;;;;;;4550643;31;20254;-70
2022/12/30 13:39:39;;;;;;;5.35;1.70;;;19.90;59.50;;;;;;4565112;31;20071;-70
2022/12/30 13:42:36;;;;;;;5.50;1.90;;;19.90;59.40;;;;;;4562208;31;20159;-70
2022/12/30 13:45:17;;;;;;;7.25;1.80;;;19.90;59.60;;;;;;4529598;31;20123;-70
2022/12/30 13:47:43;;;;;;;3.38;1.55;;;19.90;59.60;;;;;;4562714;31;20504;-69
2022/12/30 13:50:21;;;;;;;8.00;1.60;;;19.90;59.50;;;;;;4535203;31;20210;-70
2022/12/30 13:52:52;;;;;;;6.53;1.65;;;19.90;59.40;;;;;;4563317;31;20095;-70
2022/12/30 13:55:37;;;;;;;6.95;1.60;;;20.00;59.40;;;;;;4546601;31;20111;-70
2022/12/30 13:58:16;;;;;;;4.28;1.60;;;20.00;59.30;;;;;;4564081;31;20187;-69
2022/12/30 14:00:45;;;;;;;4.22;1.50;;;19.90;59.20;;;;;;4545852;31;20088;-69
2022/12/30 14:03:33;;;;;;;6.68;1.40;;;20.00;59.20;;;;;;4533949;31;20646;-70
2022/12/30 14:06:02;;;;;;;4.43;1.52;;;19.90;59.20;;;;;;4563535;31;20147;-69